This is the latest recevied weather packets stored in our database for station/object KD8BMB. If no packets are shown the sender has not sent any weather packets the latest 10 day(s).
| Time | Temp. | Humidity | Pressure | Rain* | Wind** | Luminosity | Snow |
|---|---|---|---|---|---|---|---|
| 1778089515 | 10° C | 49% | 1013 hPa | 0 mm | - | 250 W/m² | - |
| 1778089210 | 10° C | 52% | 1013.4 hPa | 0 mm | - | 536 W/m² | - |
| 1778088908 | 10° C | 53% | 1013.2 hPa | 0 mm | - | 236 W/m² | - |
| 1778088605 | 9.44° C | 54% | 1013.2 hPa | 0 mm | - | 176 W/m² | - |
| 1778088303 | 9.44° C | 53% | 1013.3 hPa | 0 mm | - | 242 W/m² | - |
| 1778087998 | 10° C | 53% | 1012.9 hPa | 0 mm | - | 204 W/m² | - |
| 1778087696 | 10° C | 53% | 1013.1 hPa | 0 mm | - | 174 W/m² | - |
| 1778087393 | 10.56° C | 54% | 1013 hPa | 0 mm | - | 275 W/m² | - |
| 1778087089 | 11.11° C | 54% | 1013.2 hPa | 0 mm | - | 711 W/m² | - |
| 1778086783 | 10.56° C | 53% | 1013 hPa | 0 mm | - | 688 W/m² | - |
| 1778086481 | 10° C | 54% | 1013 hPa | 0 mm | - | 677 W/m² | - |
| 1778086177 | 10° C | 54% | 1013.2 hPa | 0 mm | - | 790 W/m² | - |
| 1778085873 | 9.44° C | 58% | 1013.1 hPa | 0 mm | - | 523 W/m² | - |
| 1778085571 | 9.44° C | 58% | 1013.1 hPa | 0 mm | - | 261 W/m² | - |
| 1778085265 | 10° C | 55% | 1013.3 hPa | 0 mm | - | 235 W/m² | - |
| 1778084955 | 11.11° C | 54% | 1013.5 hPa | 0 mm | - | 284 W/m² | - |
| 1778084653 | 10.56° C | 57% | 1013.5 hPa | 0 mm | - | 909 W/m² | - |
| 1778084351 | 8.89° C | 61% | 1013.6 hPa | 0 mm | - | 776 W/m² | - |
| 1778084048 | 8.89° C | 60% | 1013.3 hPa | 0 mm | - | 198 W/m² | - |
| 1778083740 | 10° C | 58% | 1013.4 hPa | 0 mm | - | 291 W/m² | - |
| 1778083436 | 9.44° C | 61% | 1013.5 hPa | 0 mm | - | 836 W/m² | - |
| 1778083134 | 8.33° C | 65% | 1013.5 hPa | 0 mm | - | 828 W/m² | - |
| 1778082831 | 8.89° C | 63% | 1013.5 hPa | 0 mm | - | 909 W/m² | - |
| 1778081708 | 8.89° C | 62% | 1013.3 hPa | 0 mm | - | 255 W/m² | - |
| 1778081406 | 8.33° C | 63% | 1013.4 hPa | 0 mm | - | 861 W/m² | - |
* Rain latest hour (hover to see other rain measurements)
** Current wind speed in m/s (hover to see current wind gust speed)